LIED/DCI METAR and TAF weather

Enter ICAO airport designator
Station Type Date Time Source
LIED METAR 2022/01/29 11:55 UTC NOAA

LIED 291155Z 22004KT CAVOK 16/M01 Q1030


Station Type Date Time Source
LIED Decoded METAR 2022/01/29 11:55 UTC NOAA

Decimomannu, Italy (LIED) 39-21N 008-58E 28M
Jan 29, 2022 - 06:55 AM EST / 2022.01.29 1155 UTC
Wind: from the SW (220 degrees) at 5 MPH (4 KT):0
Visibility: greater than 7 mile(s):0
Temperature: 60 F (16 C)
Dew Point: 30 F (-1 C)
Relative Humidity: 31%
Pressure (altimeter): 30.42 in. Hg (1030 hPa)
ob: LIED 291155Z 22004KT CAVOK 16/M01 Q1030
cycle: 12

Station Type Date Time Source
LIED TAF 2021/01/17 03:30 UTC NOAA

TAF TAF LIED 170500Z 1703/1715 03003KT 9999 FEW020 SCT040
TEMPO 1706/1710 RA SCT020 BKN060
BECMG 1708/1710 33018KT
TEMPO 1710/1715 33025G35KT
TEMPO 1713/1715 RA

Example: see airport list